createdAt,value
2018-12-14T08:44:56.219Z,20
2018-12-14T08:46:06.139Z,20
2018-12-14T08:47:16.063Z,20
2018-12-14T08:48:25.985Z,25
2018-12-14T08:49:35.914Z,25
2018-12-14T08:50:45.987Z,25
2018-12-14T08:51:55.910Z,25
2018-12-14T08:53:05.840Z,25
2018-12-14T08:54:15.757Z,30
2018-12-14T08:55:25.427Z,30
2018-12-14T08:56:35.446Z,30
2018-12-14T08:57:45.363Z,30
2018-12-14T08:58:55.343Z,30
2018-12-14T09:00:05.015Z,35
2018-12-14T09:01:14.949Z,35
2018-12-14T09:02:25.016Z,35
2018-12-14T09:03:34.938Z,35
2018-12-14T09:04:44.861Z,35
2018-12-14T09:05:54.784Z,35
2018-12-14T09:07:04.771Z,40
2018-12-14T09:08:14.591Z,40
2018-12-14T09:09:25.312Z,40
2018-12-14T09:10:35.234Z,40
2018-12-14T09:11:45.153Z,40
2018-12-14T09:12:55.087Z,45
2018-12-14T09:14:05.068Z,45
2018-12-14T09:15:14.992Z,45
2018-12-14T09:16:24.928Z,45
2018-12-14T09:17:34.859Z,45
2018-12-14T09:18:44.777Z,50
2018-12-14T09:19:54.763Z,50
2018-12-14T09:21:10.497Z,50
2018-12-14T09:22:20.416Z,50
2018-12-14T09:23:30.350Z,55
2018-12-14T09:24:40.270Z,55
2018-12-14T09:25:50.194Z,55
2018-12-14T09:27:00.112Z,60
2018-12-14T09:28:10.036Z,60
2018-12-14T09:29:19.956Z,60
2018-12-14T09:30:29.878Z,60
2018-12-14T09:31:39.895Z,60
2018-12-14T09:32:49.842Z,65
2018-12-14T09:33:59.770Z,65
2018-12-14T09:35:09.691Z,65
2018-12-14T09:36:19.623Z,65
2018-12-14T09:37:29.717Z,70
2018-12-14T09:38:39.641Z,70
2018-12-14T09:39:49.568Z,70
2018-12-14T09:40:59.497Z,70
2018-12-14T09:42:09.425Z,75
2018-12-14T09:43:19.141Z,75
2018-12-14T09:44:28.805Z,75
2018-12-14T09:45:38.722Z,75
2018-12-14T09:46:48.688Z,75
2018-12-14T09:47:58.606Z,80
2018-12-14T09:49:08.328Z,80
2018-12-14T09:50:18.311Z,80
2018-12-14T09:51:27.986Z,80
2018-12-14T09:52:37.904Z,80
2018-12-14T09:53:47.825Z,80
2018-12-14T09:54:57.748Z,80
2018-12-14T09:56:07.666Z,80
2018-12-14T09:57:17.595Z,85
2018-12-14T09:58:27.524Z,85
2018-12-14T09:59:37.452Z,85
2018-12-14T10:00:47.471Z,85
2018-12-14T10:01:57.402Z,85
2018-12-14T10:03:07.322Z,85
2018-12-14T10:04:17.247Z,85
2018-12-14T10:05:27.168Z,85
2018-12-14T10:06:37.142Z,85
2018-12-14T10:07:51.757Z,85
2018-12-14T10:09:01.681Z,85
2018-12-14T10:10:11.606Z,85
2018-12-14T10:11:21.526Z,90
2018-12-14T10:12:31.497Z,85
2018-12-14T10:13:41.420Z,90
2018-12-14T10:14:51.345Z,90
2018-12-14T10:16:01.267Z,90
2018-12-14T10:17:11.193Z,90
2018-12-14T10:18:21.163Z,90
2018-12-14T10:19:31.087Z,90
2018-12-14T10:20:41.007Z,90
2018-12-14T10:21:50.929Z,90
2018-12-14T10:23:00.847Z,90
2018-12-14T10:24:10.975Z,95
2018-12-14T10:25:20.897Z,95
2018-12-14T10:26:30.819Z,90
2018-12-14T10:27:40.746Z,90
2018-12-14T10:28:50.668Z,95
2018-12-14T10:30:00.595Z,95
2018-12-14T10:31:10.522Z,95
2018-12-14T10:32:20.443Z,95
2018-12-14T10:33:30.385Z,95
2018-12-14T10:34:40.307Z,95
2018-12-14T10:35:50.225Z,95
2018-12-14T10:37:00.144Z,95
2018-12-14T10:38:10.072Z,100
2018-12-14T10:39:20.005Z,100
2018-12-14T10:40:29.924Z,100
2018-12-14T10:41:39.845Z,100
2018-12-14T10:42:49.771Z,100
2018-12-14T10:43:59.692Z,105
2018-12-14T10:45:09.609Z,105
2018-12-14T10:46:19.536Z,105
2018-12-14T10:47:29.552Z,105
2018-12-14T10:48:39.473Z,105
2018-12-14T10:49:49.390Z,100
2018-12-14T10:50:59.316Z,100
2018-12-14T10:52:09.242Z,105
2018-12-14T10:53:19.315Z,110
2018-12-14T10:54:29.239Z,105
2018-12-14T10:55:39.159Z,100
2018-12-14T10:56:49.082Z,100
2018-12-14T10:57:59.008Z,105
2018-12-14T10:59:09.033Z,105
2018-12-14T11:00:18.955Z,105
2018-12-14T11:01:28.882Z,100
2018-12-14T11:02:38.812Z,105
2018-12-14T11:03:48.737Z,105
2018-12-14T11:04:58.854Z,105
2018-12-14T11:06:08.779Z,105
2018-12-14T11:07:18.698Z,105
2018-12-14T11:08:28.624Z,110
2018-12-14T11:09:38.543Z,110
2018-12-14T11:10:48.563Z,110
2018-12-14T11:11:58.487Z,105
2018-12-14T11:13:08.409Z,105
2018-12-14T11:14:23.658Z,105
2018-12-14T11:15:35.131Z,105
2018-12-14T11:16:45.156Z,105
2018-12-14T11:17:55.079Z,95
2018-12-14T11:19:05.003Z,100
2018-12-14T11:20:14.920Z,105
2018-12-14T11:21:24.604Z,100
2018-12-14T11:22:34.624Z,100
2018-12-14T11:23:44.547Z,95
2018-12-14T11:24:54.467Z,100
2018-12-14T11:26:04.389Z,95
2018-12-14T11:27:14.312Z,95
2018-12-14T11:28:24.330Z,100
2018-12-14T11:29:35.121Z,95
2018-12-14T11:30:45.039Z,95
2018-12-14T11:31:54.967Z,100
2018-12-14T11:33:04.944Z,100
2018-12-14T11:34:14.968Z,100
2018-12-14T11:35:24.956Z,95
2018-12-14T11:36:34.878Z,95
2018-12-14T11:37:44.797Z,95
2018-12-14T11:38:54.719Z,95
2018-12-14T11:40:04.693Z,95
2018-12-14T11:41:20.804Z,95
2018-12-14T11:42:30.724Z,95
2018-12-14T11:43:40.654Z,90
2018-12-14T11:44:50.590Z,90
2018-12-14T11:46:00.628Z,90
2018-12-14T11:47:10.639Z,90
2018-12-14T11:48:20.561Z,90
2018-12-14T11:49:30.482Z,90
2018-12-14T11:50:40.401Z,85
2018-12-14T11:51:50.473Z,85
2018-12-14T11:53:00.396Z,90
2018-12-14T11:54:10.391Z,90
2018-12-14T11:55:20.319Z,85
2018-12-14T11:56:30.266Z,85
2018-12-14T11:57:40.190Z,85
2018-12-14T11:58:50.117Z,85
2018-12-14T12:00:00.042Z,85
2018-12-14T12:01:09.965Z,85
2018-12-14T12:02:19.922Z,85
2018-12-14T12:03:29.845Z,85
2018-12-14T12:04:39.833Z,80
2018-12-14T12:05:49.760Z,80
2018-12-14T12:06:59.700Z,80
2018-12-14T12:08:09.629Z,75
2018-12-14T12:09:19.612Z,75
2018-12-14T12:10:29.538Z,80
2018-12-14T12:11:39.471Z,80
2018-12-14T12:12:49.391Z,75
2018-12-14T12:13:59.322Z,75
2018-12-14T12:15:09.685Z,75
2018-12-14T12:16:19.718Z,75
2018-12-14T12:17:29.388Z,75
2018-12-14T12:18:39.311Z,75
2018-12-14T12:19:49.236Z,75
2018-12-14T12:21:00.201Z,75
2018-12-14T12:22:10.125Z,75
2018-12-14T12:23:20.672Z,70
2018-12-14T12:24:30.632Z,70
2018-12-14T12:25:40.551Z,70
2018-12-14T12:26:50.471Z,70
2018-12-14T12:28:00.390Z,70
2018-12-14T12:29:10.310Z,70
2018-12-14T12:30:20.229Z,70
2018-12-14T12:31:30.158Z,65
2018-12-14T12:32:39.926Z,65
2018-12-14T12:33:49.865Z,65
2018-12-14T12:34:59.784Z,65
2018-12-14T12:36:09.702Z,65
2018-12-14T12:37:19.685Z,65
2018-12-14T12:38:29.410Z,60
2018-12-14T12:39:39.366Z,60
2018-12-14T12:40:49.286Z,60
2018-12-14T12:41:59.207Z,60
2018-12-14T12:43:09.133Z,60
2018-12-14T12:44:19.159Z,60
2018-12-14T12:45:29.889Z,60
2018-12-14T12:46:39.811Z,60
2018-12-14T12:47:49.757Z,60
2018-12-14T12:48:59.681Z,60
2018-12-14T12:50:09.708Z,55
2018-12-14T12:51:19.632Z,55
2018-12-14T12:52:29.561Z,55
2018-12-14T12:53:39.482Z,55
2018-12-14T12:54:49.411Z,55
2018-12-14T12:55:59.438Z,50
2018-12-14T12:57:09.361Z,50
2018-12-14T12:58:19.283Z,50
2018-12-14T12:59:29.208Z,50
2018-12-14T13:00:39.128Z,50
2018-12-14T13:01:49.099Z,45
2018-12-14T13:02:59.017Z,45
2018-12-14T13:04:08.940Z,45
2018-12-14T13:05:18.861Z,45
2018-12-14T13:06:28.790Z,45
2018-12-14T13:07:38.757Z,40
2018-12-14T13:08:48.678Z,40
2018-12-14T13:09:58.601Z,40
2018-12-14T13:11:08.523Z,40
2018-12-14T13:12:18.444Z,40
2018-12-14T13:13:28.421Z,35
2018-12-14T13:14:44.704Z,35
2018-12-14T13:15:54.624Z,35
2018-12-14T13:17:04.557Z,35
2018-12-14T13:18:15.292Z,30
2018-12-14T13:19:25.313Z,30
2018-12-14T13:20:35.231Z,30
2018-12-14T13:21:45.150Z,30
2018-12-14T13:22:55.075Z,30
2018-12-14T13:24:04.993Z,25
2018-12-14T13:25:15.073Z,25
2018-12-14T13:26:25.061Z,25
2018-12-14T13:27:34.988Z,25
2018-12-14T13:28:44.914Z,25
2018-12-14T13:29:54.833Z,25
2018-12-14T13:31:04.861Z,20
2018-12-14T13:32:14.785Z,20
2018-12-14T13:33:24.709Z,20
2018-12-14T13:34:34.637Z,20
2018-12-14T13:35:44.558Z,20
2018-12-14T13:36:54.476Z,20
2018-12-14T13:38:04.417Z,20
2018-12-14T13:39:14.359Z,20
2018-12-14T13:40:24.122Z,15
2018-12-14T13:41:34.088Z,15
2018-12-14T13:42:43.832Z,15
2018-12-14T13:43:53.796Z,15
2018-12-14T13:45:03.736Z,15
2018-12-14T13:46:13.747Z,15
2018-12-14T13:47:23.446Z,15
2018-12-14T13:48:33.494Z,15
2018-12-14T13:49:43.511Z,10
2018-12-14T13:50:53.433Z,10
2018-12-14T13:52:03.363Z,10
2018-12-14T13:53:13.288Z,10
2018-12-14T13:54:23.206Z,10
2018-12-14T13:55:33.136Z,10
2018-12-14T13:56:43.963Z,10
2018-12-14T13:57:55.192Z,10
2018-12-14T13:59:05.108Z,5
2018-12-14T14:00:15.028Z,5
2018-12-14T14:01:24.949Z,5
2018-12-14T14:02:34.936Z,5
2018-12-14T14:03:44.860Z,5
2018-12-14T14:04:54.784Z,5
2018-12-14T14:06:04.555Z,5
2018-12-14T14:07:14.475Z,5
2018-12-14T14:08:23.887Z,5
2018-12-14T14:09:33.806Z,5
2018-12-14T14:10:43.537Z,5
2018-12-14T14:11:53.609Z,5
2018-12-14T14:13:03.527Z,0
2018-12-14T14:14:13.449Z,0
2018-12-14T14:15:28.150Z,0
2018-12-14T14:16:38.072Z,0
2018-12-14T14:17:48.042Z,0
2018-12-14T14:18:57.961Z,0
2018-12-14T14:20:07.885Z,0
2018-12-14T14:21:17.803Z,0
2018-12-14T14:22:27.726Z,0
2018-12-14T14:23:37.746Z,0
2018-12-14T14:24:47.671Z,0
2018-12-14T14:25:57.666Z,0
2018-12-14T14:27:07.585Z,0
2018-12-14T14:28:17.676Z,0
2018-12-14T14:29:27.709Z,0
2018-12-14T14:30:37.638Z,0
2018-12-14T14:31:47.565Z,0
2018-12-14T14:32:57.484Z,0
2018-12-14T14:34:07.470Z,0
2018-12-14T14:35:17.494Z,0
2018-12-14T14:36:27.469Z,0
2018-12-14T14:37:37.393Z,0
2018-12-14T14:38:47.322Z,0
2018-12-14T14:39:57.263Z,0
2018-12-14T14:41:07.236Z,0
2018-12-14T14:42:17.156Z,0
2018-12-14T14:43:27.082Z,0
2018-12-14T14:44:37.005Z,0
2018-12-14T14:45:46.673Z,0
2018-12-14T14:46:56.694Z,0
2018-12-14T14:48:06.612Z,0
2018-12-14T14:49:16.535Z,0
2018-12-14T14:50:26.768Z,0
2018-12-14T14:51:36.691Z,0
2018-12-14T14:52:46.765Z,0
2018-12-14T14:53:56.689Z,0
2018-12-14T14:55:06.611Z,0
2018-12-14T14:56:16.531Z,0
2018-12-14T14:57:26.470Z,0
2018-12-14T14:58:36.497Z,0
2018-12-14T14:59:46.427Z,0
2018-12-14T15:00:56.344Z,0
2018-12-14T15:02:06.269Z,0
2018-12-14T15:03:16.189Z,0
2018-12-14T15:04:26.162Z,0
2018-12-14T15:05:36.121Z,0
2018-12-14T15:06:46.040Z,0
2018-12-14T15:07:55.970Z,0
2018-12-14T15:09:05.890Z,0
2018-12-14T15:10:15.861Z,0
2018-12-14T15:11:25.782Z,0
2018-12-14T15:12:35.707Z,0
2018-12-14T15:13:45.630Z,0
2018-12-14T15:14:55.555Z,0
2018-12-14T15:16:05.532Z,0
2018-12-14T15:17:15.453Z,0
2018-12-14T15:18:25.378Z,0
2018-12-14T15:19:35.297Z,0
2018-12-14T15:20:45.221Z,0
2018-12-14T15:21:55.195Z,0
2018-12-14T15:23:05.116Z,0
2018-12-14T15:24:15.089Z,0
2018-12-14T15:25:25.017Z,0
2018-12-14T15:26:34.936Z,0
2018-12-14T15:27:44.957Z,0
2018-12-14T15:28:54.879Z,0
2018-12-14T15:30:04.553Z,0
2018-12-14T15:31:14.472Z,0
2018-12-14T15:32:24.393Z,0
2018-12-14T15:33:34.363Z,0
2018-12-14T15:34:44.282Z,0
2018-12-14T15:35:54.205Z,0
2018-12-14T15:37:03.876Z,0
2018-12-14T15:38:13.803Z,0
2018-12-14T15:39:23.526Z,0
2018-12-14T15:40:33.452Z,0
2018-12-14T15:41:43.432Z,0
2018-12-14T15:42:53.355Z,0
2018-12-14T15:44:03.286Z,0
2018-12-14T15:45:17.996Z,0
2018-12-14T15:46:29.220Z,0
2018-12-14T15:47:39.274Z,0
2018-12-14T15:48:49.202Z,0
2018-12-14T15:49:59.125Z,0
2018-12-14T15:51:09.145Z,0
2018-12-14T15:52:19.067Z,0
2018-12-14T15:53:28.987Z,0
2018-12-14T15:54:38.980Z,0
2018-12-14T15:55:48.902Z,0
2018-12-14T15:56:58.870Z,0
2018-12-14T15:58:08.862Z,0
2018-12-14T15:59:18.546Z,0
2018-12-14T16:00:28.480Z,0
2018-12-14T16:01:38.145Z,0
2018-12-14T16:02:48.148Z,0
2018-12-14T16:03:58.072Z,0
2018-12-14T16:05:07.994Z,0
2018-12-14T16:06:17.921Z,0
2018-12-14T16:07:27.840Z,0
2018-12-14T16:08:37.862Z,0
2018-12-14T16:09:47.787Z,0
2018-12-14T16:10:57.741Z,0
2018-12-14T16:12:07.664Z,0
2018-12-14T16:13:17.625Z,0
2018-12-14T16:14:34.083Z,0
2018-12-14T16:15:44.273Z,0
2018-12-14T16:16:54.245Z,0
2018-12-14T16:18:04.235Z,0
2018-12-14T16:19:14.183Z,0
2018-12-14T16:20:24.255Z,0
2018-12-14T16:21:34.228Z,0
2018-12-14T16:22:44.178Z,0
2018-12-14T16:23:54.102Z,0
2018-12-14T16:25:04.048Z,0
2018-12-14T16:26:14.151Z,0
2018-12-14T16:27:24.102Z,0
2018-12-14T16:28:33.774Z,0
2018-12-14T16:29:43.704Z,0
2018-12-14T16:30:53.673Z,0
2018-12-14T16:32:03.695Z,0
2018-12-14T16:33:13.614Z,0
2018-12-14T16:34:23.539Z,0
2018-12-14T16:35:33.458Z,0
2018-12-14T16:36:43.383Z,0
2018-12-14T16:37:53.761Z,0
2018-12-14T16:39:03.694Z,0
2018-12-14T16:40:13.610Z,0
2018-12-14T16:41:23.536Z,0
2018-12-14T16:42:33.455Z,0
2018-12-14T16:43:43.428Z,0
2018-12-14T16:44:53.350Z,0
2018-12-14T16:46:03.274Z,0
2018-12-14T16:47:13.202Z,0
2018-12-14T16:48:23.126Z,0
2018-12-14T16:49:33.148Z,0
2018-12-14T16:50:43.069Z,0
2018-12-14T16:51:52.989Z,0
2018-12-14T16:53:02.920Z,0
2018-12-14T16:54:12.847Z,0
2018-12-14T16:55:22.772Z,0
2018-12-14T16:56:32.691Z,0
2018-12-14T16:57:42.612Z,0
2018-12-14T16:58:52.534Z,0
2018-12-14T17:00:02.455Z,0
2018-12-14T17:01:12.479Z,0
2018-12-14T17:02:22.395Z,0
2018-12-14T17:03:32.363Z,0
2018-12-14T17:04:42.291Z,0
2018-12-14T17:05:52.217Z,0
2018-12-14T17:07:02.191Z,0
2018-12-14T17:08:11.861Z,0
2018-12-14T17:09:21.782Z,0
2018-12-14T17:10:31.703Z,0
2018-12-14T17:11:41.622Z,0
2018-12-14T17:12:51.651Z,0
2018-12-14T17:14:01.594Z,0
2018-12-14T17:15:11.520Z,0
2018-12-14T17:16:21.515Z,0
2018-12-14T17:17:31.434Z,0
2018-12-14T17:18:41.403Z,0
2018-12-14T17:19:51.324Z,0
2018-12-14T17:21:01.258Z,0
2018-12-14T17:22:11.189Z,0
2018-12-14T17:23:21.112Z,0
2018-12-14T17:24:30.877Z,0
2018-12-14T17:25:40.795Z,0
2018-12-14T17:26:50.715Z,0
2018-12-14T17:28:00.638Z,0
2018-12-14T17:29:10.561Z,0
2018-12-14T17:30:20.534Z,0
2018-12-14T17:31:30.470Z,0
2018-12-14T17:32:40.395Z,0
2018-12-14T17:33:50.076Z,0
2018-12-14T17:34:59.994Z,0
2018-12-14T17:36:10.025Z,0
2018-12-14T17:37:19.946Z,0
2018-12-14T17:38:29.865Z,0
2018-12-14T17:39:39.787Z,0
2018-12-14T17:40:50.643Z,0
2018-12-14T17:42:01.479Z,0
2018-12-14T17:43:11.408Z,0
2018-12-14T17:44:21.402Z,0
2018-12-14T17:45:31.322Z,0
2018-12-14T17:46:41.244Z,0
2018-12-14T17:47:51.265Z,0
2018-12-14T17:49:01.192Z,0
2018-12-14T17:50:10.859Z,0
2018-12-14T17:51:20.865Z,0
2018-12-14T17:52:30.823Z,0
2018-12-14T17:53:40.849Z,0
2018-12-14T17:54:50.778Z,0
2018-12-14T17:56:00.700Z,0
2018-12-14T17:57:10.371Z,0
2018-12-14T17:58:20.292Z,0
2018-12-14T17:59:30.326Z,0
2018-12-14T18:00:40.245Z,0
2018-12-14T18:01:50.163Z,0
2018-12-14T18:03:00.092Z,0
2018-12-14T18:04:10.078Z,0
2018-12-14T18:05:20.052Z,0
2018-12-14T18:06:29.971Z,0
2018-12-14T18:07:39.941Z,0
2018-12-14T18:08:49.860Z,0
2018-12-14T18:09:59.788Z,0
2018-12-14T18:11:09.755Z,0
2018-12-14T18:12:19.674Z,0
2018-12-14T18:13:29.597Z,0
2018-12-14T18:14:39.259Z,0
2018-12-14T18:15:55.910Z,0
2018-12-14T18:17:05.936Z,0
2018-12-14T18:18:15.858Z,0
2018-12-14T18:19:25.783Z,0
2018-12-14T18:20:35.707Z,0
2018-12-14T18:21:45.629Z,0
2018-12-14T18:22:55.601Z,0
2018-12-14T18:24:05.523Z,0
2018-12-14T18:25:15.449Z,0
2018-12-14T18:26:25.372Z,0
2018-12-14T18:27:35.288Z,0
2018-12-14T18:28:45.308Z,0
2018-12-14T18:29:55.225Z,0
2018-12-14T18:31:05.144Z,0
2018-12-14T18:32:15.086Z,0
2018-12-14T18:33:25.011Z,0
2018-12-14T18:34:34.997Z,0
2018-12-14T18:35:44.917Z,0
2018-12-14T18:36:54.838Z,0
2018-12-14T18:38:04.761Z,0
2018-12-14T18:39:14.680Z,0
2018-12-14T18:40:24.656Z,0
2018-12-14T18:41:34.573Z,0
2018-12-14T18:42:44.493Z,0
2018-12-14T18:43:54.418Z,0
2018-12-14T18:45:04.340Z,0
2018-12-14T18:46:14.418Z,0
2018-12-14T18:47:24.346Z,0
2018-12-14T18:48:35.256Z,0
2018-12-14T18:49:45.173Z,0
2018-12-14T18:50:55.100Z,0
2018-12-14T18:52:05.078Z,0
2018-12-14T18:53:15.003Z,0
2018-12-14T18:54:24.921Z,0
2018-12-14T18:55:35.281Z,0
2018-12-14T18:56:45.255Z,0
2018-12-14T18:57:55.225Z,0
2018-12-14T18:59:05.149Z,0
2018-12-14T19:00:15.078Z,0
2018-12-14T19:01:24.995Z,0
2018-12-14T19:02:34.916Z,0
2018-12-14T19:03:44.956Z,0
2018-12-14T19:04:54.881Z,0
2018-12-14T19:06:04.808Z,0
2018-12-14T19:07:14.728Z,0
2018-12-14T19:08:24.643Z,0
2018-12-14T19:09:34.714Z,0
2018-12-14T19:10:44.632Z,0
2018-12-14T19:11:54.558Z,0
2018-12-14T19:13:04.487Z,0
2018-12-14T19:14:14.407Z,0
2018-12-14T19:15:24.373Z,0
2018-12-14T19:16:34.291Z,0
2018-12-14T19:17:44.207Z,0
2018-12-14T19:18:54.189Z,0
2018-12-14T19:20:04.107Z,0
2018-12-14T19:21:14.132Z,0
2018-12-14T19:22:24.052Z,0
2018-12-14T19:23:33.975Z,0
2018-12-14T19:24:43.894Z,0
2018-12-14T19:25:53.812Z,0
2018-12-14T19:27:03.791Z,0
2018-12-14T19:28:13.725Z,0
2018-12-14T19:29:23.652Z,0
2018-12-14T19:30:33.569Z,0
2018-12-14T19:31:43.490Z,0
2018-12-14T19:32:53.508Z,0
2018-12-14T19:34:03.429Z,0
2018-12-14T19:35:13.344Z,0
2018-12-14T19:36:23.260Z,0
2018-12-14T19:37:33.183Z,0
2018-12-14T19:38:43.200Z,0
2018-12-14T19:39:53.121Z,0
2018-12-14T19:41:03.042Z,0
2018-12-14T19:42:12.973Z,0
2018-12-14T19:43:22.899Z,0
2018-12-14T19:44:32.918Z,0
2018-12-14T19:45:42.834Z,0
2018-12-14T19:46:52.757Z,0
2018-12-14T19:48:02.673Z,0
2018-12-14T19:49:12.597Z,0
2018-12-14T19:50:22.614Z,0
2018-12-14T19:51:32.532Z,0
2018-12-14T19:52:43.489Z,0
2018-12-14T19:53:53.407Z,0
2018-12-14T19:55:03.326Z,0
2018-12-14T19:56:13.294Z,0
2018-12-14T19:57:23.211Z,0
2018-12-14T19:58:33.133Z,0
2018-12-14T19:59:43.057Z,0
2018-12-14T20:00:52.971Z,0
2018-12-14T20:02:02.941Z,0
2018-12-14T20:03:12.861Z,0
2018-12-14T20:04:22.776Z,0
2018-12-14T20:05:32.696Z,0
2018-12-14T20:06:42.611Z,0
2018-12-14T20:07:52.638Z,0
2018-12-14T20:09:02.561Z,0
2018-12-14T20:10:12.480Z,0
2018-12-14T20:11:22.399Z,0
2018-12-14T20:12:32.319Z,0
2018-12-14T20:13:42.298Z,0
2018-12-14T20:14:52.223Z,0
2018-12-14T20:16:12.669Z,0
2018-12-14T20:17:22.735Z,0
2018-12-14T20:18:32.652Z,0
2018-12-14T20:19:42.673Z,0
2018-12-14T20:20:52.590Z,0
2018-12-14T20:22:02.508Z,0
2018-12-14T20:23:12.430Z,0
2018-12-14T20:24:22.348Z,0
2018-12-14T20:25:32.314Z,0
2018-12-14T20:26:42.232Z,0
2018-12-14T20:27:52.151Z,0
2018-12-14T20:29:02.077Z,0
2018-12-14T20:30:12.010Z,0
2018-12-14T20:31:22.028Z,0
2018-12-14T20:32:31.947Z,0
2018-12-14T20:33:41.868Z,0
2018-12-14T20:34:51.793Z,0
2018-12-14T20:36:01.713Z,0
2018-12-14T20:37:11.733Z,0
2018-12-14T20:38:21.710Z,0
2018-12-14T20:39:31.629Z,0
2018-12-14T20:40:41.550Z,0
2018-12-14T20:41:51.467Z,0
2018-12-14T20:43:01.417Z,0
2018-12-14T20:44:11.338Z,0
2018-12-14T20:45:21.262Z,0
2018-12-14T20:46:31.186Z,0
2018-12-14T20:47:41.107Z,0
2018-12-14T20:48:51.025Z,0
2018-12-14T20:50:00.946Z,0
2018-12-14T20:51:10.874Z,0
2018-12-14T20:52:20.793Z,0
2018-12-14T20:53:30.717Z,0
2018-12-14T20:54:41.634Z,0
2018-12-14T20:55:51.554Z,0
2018-12-14T20:57:01.501Z,0
2018-12-14T20:58:11.424Z,0
2018-12-14T20:59:21.345Z,0
2018-12-14T21:00:31.112Z,0
2018-12-14T21:01:41.031Z,0
2018-12-14T21:02:50.954Z,0
2018-12-14T21:04:00.878Z,0
2018-12-14T21:05:10.800Z,0
2018-12-14T21:06:20.823Z,0
2018-12-14T21:07:30.742Z,0
2018-12-14T21:08:40.663Z,0
2018-12-14T21:09:50.578Z,0
2018-12-14T21:11:00.554Z,0
2018-12-14T21:12:10.571Z,0
2018-12-14T21:13:20.493Z,0
2018-12-14T21:14:30.411Z,0
2018-12-14T21:15:40.344Z,0
2018-12-14T21:16:50.261Z,0
2018-12-14T21:18:00.235Z,0
2018-12-14T21:19:10.158Z,0
2018-12-14T21:20:20.080Z,0
2018-12-14T21:21:30.071Z,0
2018-12-14T21:22:40.008Z,0
2018-12-14T21:23:49.980Z,0
2018-12-14T21:24:59.901Z,0
2018-12-14T21:26:09.822Z,0
2018-12-14T21:27:19.548Z,0
2018-12-14T21:28:29.473Z,0
2018-12-14T21:29:39.494Z,0
2018-12-14T21:30:49.414Z,0
2018-12-14T21:31:59.331Z,0
2018-12-14T21:33:09.248Z,0
2018-12-14T21:34:19.480Z,0
2018-12-14T21:35:29.450Z,0
2018-12-14T21:36:39.372Z,0
2018-12-14T21:37:49.296Z,0
2018-12-14T21:38:58.969Z,0
2018-12-14T21:40:08.891Z,0
2018-12-14T21:41:18.865Z,0
2018-12-14T21:42:28.808Z,0
2018-12-14T21:43:38.731Z,0
2018-12-14T21:44:48.649Z,0
2018-12-14T21:45:58.567Z,0
2018-12-14T21:47:08.537Z,0
2018-12-14T21:48:18.462Z,0
2018-12-14T21:49:28.386Z,0
2018-12-14T21:50:38.305Z,0
2018-12-14T21:51:48.223Z,0
2018-12-14T21:52:58.245Z,0
2018-12-14T21:54:08.160Z,0
2018-12-14T21:55:18.078Z,0
2018-12-14T21:56:28.011Z,0
2018-12-14T21:57:37.930Z,0
2018-12-14T21:58:47.902Z,0
2018-12-14T21:59:57.822Z,0
2018-12-14T22:01:07.745Z,0
2018-12-14T22:02:17.665Z,0
2018-12-14T22:03:27.587Z,0
2018-12-14T22:04:38.354Z,0
2018-12-14T22:05:48.272Z,0
2018-12-14T22:06:58.194Z,0
2018-12-14T22:08:08.121Z,0
2018-12-14T22:09:18.041Z,0
2018-12-14T22:10:28.060Z,0
2018-12-14T22:11:37.976Z,0
2018-12-14T22:12:47.893Z,0
2018-12-14T22:13:57.821Z,0
2018-12-14T22:15:08.247Z,0
2018-12-14T22:16:18.273Z,0
2018-12-14T22:17:28.192Z,0
2018-12-14T22:18:38.122Z,0
2018-12-14T22:19:48.105Z,0
2018-12-14T22:20:59.124Z,0
2018-12-14T22:22:09.099Z,0
2018-12-14T22:23:19.026Z,0
2018-12-14T22:24:28.947Z,0
2018-12-14T22:25:38.876Z,0
2018-12-14T22:26:48.795Z,0
2018-12-14T22:27:59.424Z,0
2018-12-14T22:29:09.095Z,0
2018-12-14T22:30:19.014Z,0
2018-12-14T22:31:28.926Z,0
2018-12-14T22:32:38.862Z,0
2018-12-14T22:33:48.885Z,0
2018-12-14T22:34:58.806Z,0
2018-12-14T22:36:08.732Z,0
2018-12-14T22:37:18.401Z,0
2018-12-14T22:38:28.327Z,0
2018-12-14T22:39:38.348Z,0
2018-12-14T22:40:48.274Z,0
2018-12-14T22:41:58.211Z,0
2018-12-14T22:43:08.128Z,0
2018-12-14T22:44:23.845Z,0
2018-12-14T22:45:33.867Z,0
2018-12-14T22:46:50.338Z,0
2018-12-14T22:48:00.273Z,0
2018-12-14T22:49:10.266Z,0
2018-12-14T22:50:20.182Z,0
2018-12-14T22:51:30.203Z,0
2018-12-14T22:52:40.124Z,0
2018-12-14T22:53:50.040Z,0
2018-12-14T22:55:00.020Z,0
2018-12-14T22:56:09.940Z,0
2018-12-14T22:57:19.959Z,0
2018-12-14T22:58:29.880Z,0
2018-12-14T22:59:39.800Z,0
2018-12-14T23:00:49.723Z,0
2018-12-14T23:01:59.649Z,0
2018-12-14T23:03:09.675Z,0
2018-12-14T23:04:19.594Z,0
2018-12-14T23:05:29.521Z,0
2018-12-14T23:06:39.438Z,0
2018-12-14T23:07:49.365Z,0
2018-12-14T23:08:59.384Z,0
2018-12-14T23:10:09.305Z,0
2018-12-14T23:11:19.225Z,0
2018-12-14T23:12:29.144Z,0
2018-12-14T23:13:39.069Z,0
2018-12-14T23:14:49.042Z,0
2018-12-14T23:15:58.977Z,0
2018-12-14T23:17:08.905Z,0
2018-12-14T23:18:18.893Z,0
2018-12-14T23:19:28.813Z,0
2018-12-14T23:20:38.833Z,0
2018-12-14T23:21:48.750Z,0
2018-12-14T23:22:58.667Z,0
2018-12-14T23:24:08.598Z,0
2018-12-14T23:25:18.519Z,0
2018-12-14T23:26:28.543Z,0
2018-12-14T23:27:38.468Z,0
2018-12-14T23:28:48.392Z,0
2018-12-14T23:29:58.316Z,0
2018-12-14T23:31:08.236Z,0
2018-12-14T23:32:18.215Z,0
2018-12-14T23:33:28.160Z,0
2018-12-14T23:34:38.082Z,0
2018-12-14T23:35:48.002Z,0
2018-12-14T23:36:57.963Z,0
2018-12-14T23:38:07.987Z,0
2018-12-14T23:39:17.906Z,0
2018-12-14T23:40:27.835Z,0
2018-12-14T23:41:37.759Z,0
2018-12-14T23:42:47.684Z,0
2018-12-14T23:43:57.653Z,0
2018-12-14T23:45:07.572Z,0
2018-12-14T23:46:17.488Z,0
2018-12-14T23:47:27.470Z,0
2018-12-14T23:48:37.394Z,0
2018-12-14T23:49:47.420Z,0
2018-12-14T23:50:57.344Z,0
2018-12-14T23:52:07.011Z,0
2018-12-14T23:53:16.930Z,0
2018-12-14T23:54:26.849Z,0
2018-12-14T23:55:36.819Z,0
2018-12-14T23:56:46.736Z,0
2018-12-14T23:57:56.659Z,0
2018-12-14T23:59:06.589Z,0
